createdAt,value
2023-12-22T00:00:48.731Z,7.02
2023-12-22T00:03:51.348Z,7.03
2023-12-22T00:06:53.685Z,7.12
2023-12-22T00:09:55.949Z,7.16
2023-12-22T00:12:58.222Z,7.11
2023-12-22T00:16:01.485Z,7.08
2023-12-22T00:19:04.882Z,6.99
2023-12-22T00:22:07.267Z,7.06
2023-12-22T00:25:11.026Z,7.30
2023-12-22T00:28:13.411Z,7.49
2023-12-22T00:31:15.691Z,7.85
2023-12-22T00:34:19.816Z,8.02
2023-12-22T00:37:22.114Z,8.29
2023-12-22T00:40:24.618Z,8.62
2023-12-22T00:43:26.882Z,8.75
2023-12-22T00:46:29.167Z,8.77
2023-12-22T00:49:31.749Z,8.93
2023-12-22T00:52:34.220Z,8.93
2023-12-22T00:55:36.587Z,8.93
2023-12-22T00:58:38.837Z,9.08
2023-12-22T01:01:41.186Z,9.10
2023-12-22T01:04:43.887Z,9.14
2023-12-22T01:07:46.582Z,9.13
2023-12-22T01:10:49.314Z,9.10
2023-12-22T01:13:51.644Z,9.14
2023-12-22T01:16:54.056Z,9.17
2023-12-22T01:19:56.568Z,9.34
2023-12-22T01:22:58.963Z,9.42
2023-12-22T01:26:02.011Z,9.57
2023-12-22T01:29:04.714Z,9.68
2023-12-22T01:32:07.380Z,9.81
2023-12-22T01:35:11.501Z,9.89
2023-12-22T01:38:13.928Z,10.03
2023-12-22T01:41:16.302Z,9.92
2023-12-22T01:44:18.578Z,9.72
2023-12-22T01:47:21.336Z,9.37
2023-12-22T01:50:23.970Z,9.03
2023-12-22T01:53:27.670Z,8.76
2023-12-22T01:56:30.157Z,8.65
2023-12-22T01:59:35.694Z,8.46
2023-12-22T02:02:39.499Z,8.31
2023-12-22T02:05:51.398Z,8.20
2023-12-22T02:08:55.043Z,8.09
2023-12-22T02:11:57.343Z,8.01
2023-12-22T02:14:59.912Z,7.91
2023-12-22T02:18:10.326Z,7.90
2023-12-22T02:21:12.636Z,7.77
2023-12-22T02:24:14.972Z,7.63
2023-12-22T02:27:39.451Z,7.54
2023-12-22T02:30:56.990Z,7.47
2023-12-22T02:34:01.276Z,7.37
2023-12-22T02:37:09.434Z,7.32
2023-12-22T02:40:12.568Z,7.29
2023-12-22T02:43:15.017Z,7.16
2023-12-22T02:46:24.406Z,6.96
2023-12-22T02:49:26.833Z,6.94
2023-12-22T02:52:29.443Z,6.94
2023-12-22T02:55:31.855Z,6.82
2023-12-22T02:58:34.281Z,6.81
2023-12-22T03:01:36.771Z,6.77
2023-12-22T03:04:39.059Z,6.81
2023-12-22T03:07:41.407Z,6.82
2023-12-22T03:10:43.731Z,6.87
2023-12-22T03:13:46.038Z,6.88
2023-12-22T03:16:48.366Z,6.94
2023-12-22T03:19:50.734Z,7.01
2023-12-22T03:22:53.040Z,7.02
2023-12-22T03:25:55.467Z,7.06
2023-12-22T03:28:57.767Z,7.06
2023-12-22T03:32:00.215Z,7.03
2023-12-22T03:35:02.620Z,7.03
2023-12-22T03:38:05.062Z,7.05
2023-12-22T03:41:07.488Z,7.03
2023-12-22T03:44:10.214Z,7.05
2023-12-22T03:47:12.609Z,7.05
2023-12-22T03:50:14.943Z,7.06
2023-12-22T03:53:17.815Z,7.08
2023-12-22T03:56:20.292Z,7.03
2023-12-22T03:59:22.759Z,7.02
2023-12-22T04:02:25.005Z,7.03
2023-12-22T04:05:27.271Z,6.96
2023-12-22T04:08:29.546Z,6.92
2023-12-22T04:11:31.944Z,6.95
2023-12-22T04:14:34.235Z,6.89
2023-12-22T04:17:36.507Z,6.78
2023-12-22T04:20:38.910Z,6.64
2023-12-22T04:23:41.176Z,6.65
2023-12-22T04:26:43.448Z,6.61
2023-12-22T04:29:45.666Z,6.64
2023-12-22T04:32:48.009Z,6.54
2023-12-22T04:35:50.270Z,6.45
2023-12-22T04:38:52.518Z,6.36
2023-12-22T04:41:54.729Z,6.27
2023-12-22T04:44:57.012Z,6.27
2023-12-22T04:47:59.821Z,6.27
2023-12-22T04:51:02.259Z,6.38
2023-12-22T04:54:04.580Z,6.44
2023-12-22T04:57:06.901Z,6.41
2023-12-22T05:00:09.589Z,6.31
2023-12-22T05:03:11.905Z,6.21
2023-12-22T05:06:14.262Z,6.21
2023-12-22T05:09:17.529Z,6.13
2023-12-22T05:12:20.971Z,6.06
2023-12-22T05:15:23.219Z,6.17
2023-12-22T05:18:25.801Z,6.24
2023-12-22T05:21:31.406Z,6.20
2023-12-22T05:24:33.724Z,6.19
2023-12-22T05:27:36.137Z,6.23
2023-12-22T05:30:38.367Z,6.29
2023-12-22T05:33:40.725Z,6.34
2023-12-22T05:36:42.978Z,6.45
2023-12-22T05:39:46.318Z,6.47
2023-12-22T05:42:48.553Z,6.53
2023-12-22T05:45:50.837Z,6.48
2023-12-22T05:48:55.452Z,6.43
2023-12-22T05:51:59.817Z,6.44
2023-12-22T05:55:02.107Z,6.48
2023-12-22T05:58:04.562Z,6.48
2023-12-22T06:01:06.875Z,6.44
2023-12-22T06:04:09.454Z,6.34
2023-12-22T06:07:12.346Z,6.38
2023-12-22T06:10:14.685Z,6.33
2023-12-22T06:13:16.936Z,6.31
2023-12-22T06:16:19.876Z,6.30
2023-12-22T06:19:23.305Z,6.24
2023-12-22T06:22:25.630Z,6.30
2023-12-22T06:25:28.359Z,6.29
2023-12-22T06:28:30.727Z,6.21
2023-12-22T06:31:33.183Z,6.05
2023-12-22T06:34:35.632Z,5.99
2023-12-22T06:37:37.966Z,6.00
2023-12-22T06:40:40.388Z,6.06
2023-12-22T06:43:42.722Z,6.14
2023-12-22T06:46:45.116Z,6.12
2023-12-22T06:49:47.529Z,6.17
2023-12-22T06:52:51.169Z,6.09
2023-12-22T06:55:53.636Z,6.12
2023-12-22T06:58:58.707Z,6.14
2023-12-22T07:02:09.749Z,6.20
2023-12-22T07:05:22.463Z,6.44
2023-12-22T07:08:31.476Z,6.40
2023-12-22T07:11:37.952Z,6.44
2023-12-22T07:14:40.702Z,6.38
2023-12-22T07:17:43.882Z,6.41
2023-12-22T07:20:46.431Z,6.43
2023-12-22T07:23:48.690Z,6.29
2023-12-22T07:26:50.947Z,6.27
2023-12-22T07:29:53.178Z,6.36
2023-12-22T07:32:55.467Z,7.74
2023-12-22T07:35:57.827Z,8.90
2023-12-22T07:39:00.533Z,10.06
2023-12-22T07:42:02.799Z,10.03
2023-12-22T07:45:06.229Z,8.90
2023-12-22T07:48:08.791Z,8.79
2023-12-22T07:51:11.129Z,8.22
2023-12-22T07:54:13.373Z,10.00
2023-12-22T07:57:15.662Z,11.70
2023-12-22T08:00:19.278Z,12.62
2023-12-22T08:03:21.557Z,13.07
2023-12-22T08:06:23.934Z,13.51
2023-12-22T08:09:26.297Z,12.92
2023-12-22T08:12:29.209Z,12.41
2023-12-22T08:15:36.788Z,13.09
2023-12-22T08:18:39.764Z,13.54
2023-12-22T08:21:46.359Z,13.70
2023-12-22T08:24:50.603Z,13.43
2023-12-22T08:27:53.261Z,12.66
2023-12-22T08:30:55.563Z,11.93
2023-12-22T08:33:58.028Z,12.69
2023-12-22T08:37:01.906Z,13.33
2023-12-22T08:40:05.004Z,14.16
2023-12-22T08:43:07.652Z,13.63
2023-12-22T08:46:11.037Z,12.07
2023-12-22T08:49:20.956Z,14.02
2023-12-22T08:52:23.297Z,14.59
2023-12-22T08:55:26.012Z,14.47
2023-12-22T08:58:28.618Z,13.64
2023-12-22T09:01:31.542Z,13.60
2023-12-22T09:04:33.915Z,13.74
2023-12-22T09:07:36.251Z,12.91
2023-12-22T09:10:38.843Z,12.37
2023-12-22T09:13:41.333Z,12.46
2023-12-22T09:16:45.670Z,11.53
2023-12-22T09:19:47.982Z,11.02
2023-12-22T09:22:50.558Z,12.85
2023-12-22T09:25:53.110Z,12.30
2023-12-22T09:28:56.495Z,13.42
2023-12-22T09:31:59.861Z,12.17
2023-12-22T09:35:02.719Z,11.09
2023-12-22T09:38:05.164Z,10.49
2023-12-22T09:41:07.731Z,11.08
2023-12-22T09:44:10.445Z,10.90
2023-12-22T09:47:14.357Z,10.92
2023-12-22T09:50:17.173Z,10.82
2023-12-22T09:53:20.759Z,11.28
2023-12-22T09:56:25.270Z,11.47
2023-12-22T09:59:30.027Z,12.10
2023-12-22T10:02:34.486Z,12.91
2023-12-22T10:05:37.077Z,13.22
2023-12-22T10:08:40.684Z,12.73
2023-12-22T10:11:45.015Z,13.47
2023-12-22T10:14:48.939Z,14.11
2023-12-22T10:17:52.633Z,14.19
2023-12-22T10:20:55.685Z,13.67
2023-12-22T10:23:58.716Z,13.57
2023-12-22T10:27:01.776Z,13.40
2023-12-22T10:30:05.101Z,12.99
2023-12-22T10:33:08.332Z,14.65
2023-12-22T10:36:11.164Z,15.55
2023-12-22T10:39:13.924Z,15.76
2023-12-22T10:42:16.293Z,15.93
2023-12-22T10:45:19.860Z,16.98
2023-12-22T10:48:23.705Z,16.94
2023-12-22T10:51:29.171Z,16.33
2023-12-22T10:54:32.175Z,13.78
2023-12-22T10:57:39.588Z,13.88
2023-12-22T11:00:44.630Z,12.82
2023-12-22T11:03:51.572Z,13.89
2023-12-22T11:06:58.221Z,13.81
2023-12-22T11:10:05.669Z,12.79
2023-12-22T11:13:09.554Z,11.97
2023-12-22T11:16:12.861Z,11.79
2023-12-22T11:19:16.230Z,11.29
2023-12-22T11:22:20.087Z,11.23
2023-12-22T11:25:23.753Z,10.80
2023-12-22T11:28:26.568Z,10.46
2023-12-22T11:31:33.412Z,10.32
2023-12-22T11:34:37.896Z,10.10
2023-12-22T11:37:40.834Z,10.17
2023-12-22T11:40:43.354Z,10.19
2023-12-22T11:43:46.722Z,10.23
2023-12-22T11:46:49.463Z,10.37
2023-12-22T11:49:52.026Z,10.53
2023-12-22T11:52:54.768Z,10.19
2023-12-22T11:56:01.147Z,10.28
2023-12-22T11:59:03.597Z,10.09
2023-12-22T12:02:09.476Z,9.85
2023-12-22T12:05:14.254Z,10.12
2023-12-22T12:08:16.774Z,10.98
2023-12-22T12:11:19.679Z,11.40
2023-12-22T12:14:32.528Z,11.93
2023-12-22T12:17:38.792Z,10.90
2023-12-22T12:20:41.091Z,11.26
2023-12-22T12:23:43.779Z,12.73
2023-12-22T12:26:46.062Z,14.93
2023-12-22T12:29:48.440Z,16.00
2023-12-22T12:32:51.362Z,14.67
2023-12-22T12:35:57.100Z,13.09
2023-12-22T12:39:08.674Z,12.61
2023-12-22T12:42:16.349Z,11.66
2023-12-22T12:45:24.544Z,11.05
2023-12-22T12:48:27.070Z,10.65
2023-12-22T12:51:29.463Z,10.80
2023-12-22T12:54:32.792Z,12.25
2023-12-22T12:57:35.054Z,12.04
2023-12-22T13:00:37.449Z,15.01
2023-12-22T13:03:55.983Z,17.25
2023-12-22T13:07:00.362Z,17.14
2023-12-22T13:10:02.766Z,17.67
2023-12-22T13:13:05.654Z,18.52
2023-12-22T13:16:08.216Z,18.79
2023-12-22T13:19:10.857Z,19.16
2023-12-22T13:22:13.561Z,19.78
2023-12-22T13:25:16.178Z,20.29
2023-12-22T13:28:29.762Z,20.06
2023-12-22T13:31:33.435Z,19.67
2023-12-22T13:34:42.449Z,18.75
2023-12-22T13:37:44.872Z,16.51
2023-12-22T13:40:48.173Z,16.58
2023-12-22T13:43:50.757Z,15.57
2023-12-22T13:46:53.616Z,15.82
2023-12-22T13:49:56.195Z,13.22
2023-12-22T13:53:08.974Z,13.37
2023-12-22T13:56:13.042Z,12.01
2023-12-22T13:59:15.395Z,10.95
2023-12-22T14:02:17.771Z,10.36
2023-12-22T14:05:20.686Z,9.67
2023-12-22T14:08:23.070Z,9.47
2023-12-22T14:11:25.533Z,9.08
2023-12-22T14:14:27.809Z,8.89
2023-12-22T14:17:31.901Z,8.87
2023-12-22T14:20:34.922Z,8.96
2023-12-22T14:23:37.274Z,8.96
2023-12-22T14:26:55.944Z,8.76
2023-12-22T14:29:58.345Z,8.59
2023-12-22T14:33:01.066Z,8.46
2023-12-22T14:36:03.918Z,8.44
2023-12-22T14:39:06.515Z,8.32
2023-12-22T14:42:08.907Z,8.28
2023-12-22T14:45:11.292Z,8.24
2023-12-22T14:48:13.875Z,8.24
2023-12-22T14:51:16.282Z,8.15
2023-12-22T14:54:19.100Z,8.12
2023-12-22T14:57:22.011Z,8.04
2023-12-22T15:00:24.398Z,7.94
2023-12-22T15:03:26.796Z,7.93
2023-12-22T15:06:32.604Z,7.90
2023-12-22T15:09:35.942Z,7.85
2023-12-22T15:12:39.163Z,7.90
2023-12-22T15:15:41.536Z,7.73
2023-12-22T15:18:43.801Z,7.75
2023-12-22T15:21:46.120Z,7.69
2023-12-22T15:24:48.382Z,7.70
2023-12-22T15:27:50.948Z,7.69
2023-12-22T15:30:53.469Z,7.69
2023-12-22T15:33:56.514Z,7.69
2023-12-22T15:36:58.780Z,7.80
2023-12-22T15:40:01.109Z,7.78
2023-12-22T15:43:03.488Z,7.80
2023-12-22T15:46:12.241Z,7.78
2023-12-22T15:49:14.566Z,7.66
2023-12-22T15:52:16.977Z,7.64
2023-12-22T15:55:19.233Z,7.63
2023-12-22T15:58:21.505Z,7.60
2023-12-22T16:01:23.874Z,7.57
2023-12-22T16:04:26.251Z,7.50
2023-12-22T16:07:28.555Z,7.42
2023-12-22T16:10:30.904Z,7.42
2023-12-22T16:13:34.378Z,7.36
2023-12-22T16:16:36.740Z,7.33
2023-12-22T16:19:40.638Z,7.33
2023-12-22T16:22:43.688Z,7.33
2023-12-22T16:25:46.856Z,7.42
2023-12-22T16:28:49.251Z,7.47
2023-12-22T16:31:51.570Z,7.44
2023-12-22T16:34:53.902Z,7.40
2023-12-22T16:37:56.232Z,7.40
2023-12-22T16:41:00.678Z,7.42
2023-12-22T16:44:03.045Z,7.44
2023-12-22T16:47:05.669Z,7.40
2023-12-22T16:50:08.805Z,7.54
2023-12-22T16:53:11.733Z,7.52
2023-12-22T16:56:14.048Z,7.49
2023-12-22T16:59:16.441Z,7.54
2023-12-22T17:02:28.004Z,7.60
2023-12-22T17:05:35.829Z,7.66
2023-12-22T17:08:38.562Z,7.71
2023-12-22T17:11:41.039Z,7.70
2023-12-22T17:14:43.282Z,7.73
2023-12-22T17:17:45.705Z,7.74
2023-12-22T17:20:56.322Z,7.74
2023-12-22T17:24:02.079Z,7.71
2023-12-22T17:27:04.569Z,7.67
2023-12-22T17:30:07.377Z,7.57
2023-12-22T17:33:09.679Z,7.47
2023-12-22T17:36:11.977Z,7.44
2023-12-22T17:39:14.204Z,7.47
2023-12-22T17:42:16.456Z,7.37
2023-12-22T17:45:18.682Z,7.33
2023-12-22T17:48:21.135Z,7.27
2023-12-22T17:51:30.506Z,7.18
2023-12-22T17:54:32.917Z,7.19
2023-12-22T17:57:35.156Z,7.12
2023-12-22T18:00:37.416Z,7.05
2023-12-22T18:03:39.672Z,7.01
2023-12-22T18:06:42.258Z,7.03
2023-12-22T18:09:44.553Z,6.98
2023-12-22T18:12:47.015Z,6.88
2023-12-22T18:15:49.429Z,6.88
2023-12-22T18:18:51.844Z,6.80
2023-12-22T18:21:54.153Z,6.78
2023-12-22T18:24:56.463Z,6.64
2023-12-22T18:27:58.769Z,6.53
2023-12-22T18:31:01.185Z,6.41
2023-12-22T18:34:05.255Z,6.34
2023-12-22T18:37:07.777Z,6.21
2023-12-22T18:40:14.087Z,6.14
2023-12-22T18:43:16.437Z,6.03
2023-12-22T18:46:18.691Z,5.93
2023-12-22T18:49:21.630Z,5.80
2023-12-22T18:52:24.042Z,5.73
2023-12-22T18:55:26.273Z,5.66
2023-12-22T18:58:30.260Z,5.59
2023-12-22T19:01:43.498Z,5.55
2023-12-22T19:04:52.383Z,5.52
2023-12-22T19:07:55.544Z,5.47
2023-12-22T19:10:57.918Z,5.40
2023-12-22T19:14:00.279Z,5.31
2023-12-22T19:17:02.577Z,5.27
2023-12-22T19:20:08.860Z,5.17
2023-12-22T19:23:11.254Z,5.08
2023-12-22T19:26:13.623Z,5.06
2023-12-22T19:29:16.133Z,4.99
2023-12-22T19:32:19.024Z,4.90
2023-12-22T19:35:21.599Z,4.89
2023-12-22T19:38:24.417Z,4.90
2023-12-22T19:41:31.942Z,4.80
2023-12-22T19:44:34.208Z,4.73
2023-12-22T19:47:36.878Z,4.66
2023-12-22T19:50:39.713Z,4.56
2023-12-22T19:53:42.196Z,4.46
2023-12-22T19:56:44.504Z,4.41
2023-12-22T19:59:46.762Z,4.38
2023-12-22T20:02:49.239Z,4.38
2023-12-22T20:05:51.864Z,4.36
2023-12-22T20:08:54.258Z,4.22
2023-12-22T20:11:58.632Z,4.19
2023-12-22T20:15:04.596Z,4.14
2023-12-22T20:18:07.158Z,4.12
2023-12-22T20:21:10.218Z,4.04
2023-12-22T20:24:13.023Z,4.04
2023-12-22T20:27:16.111Z,4.01
2023-12-22T20:30:18.529Z,3.93
2023-12-22T20:33:20.845Z,3.84
2023-12-22T20:36:23.149Z,3.81
2023-12-22T20:39:25.611Z,3.84
2023-12-22T20:42:27.901Z,3.80
2023-12-22T20:45:30.441Z,3.73
2023-12-22T20:48:32.821Z,3.67
2023-12-22T20:51:44.614Z,3.69
2023-12-22T20:54:46.961Z,3.63
2023-12-22T20:57:49.861Z,3.64
2023-12-22T21:00:52.634Z,3.66
2023-12-22T21:03:55.208Z,3.59
2023-12-22T21:06:57.902Z,3.59
2023-12-22T21:10:00.257Z,3.52
2023-12-22T21:13:02.535Z,3.62
2023-12-22T21:16:07.996Z,3.60
2023-12-22T21:19:10.407Z,3.60
2023-12-22T21:22:13.368Z,3.56
2023-12-22T21:25:17.104Z,3.54
2023-12-22T21:28:19.710Z,3.56
2023-12-22T21:31:22.036Z,3.57
2023-12-22T21:34:24.328Z,3.60
2023-12-22T21:37:26.769Z,3.66
2023-12-22T21:40:29.532Z,3.63
2023-12-22T21:43:31.811Z,3.64
2023-12-22T21:46:34.381Z,3.62
2023-12-22T21:49:39.590Z,3.62
2023-12-22T21:52:44.292Z,3.63
2023-12-22T21:55:46.921Z,3.60
2023-12-22T21:58:49.312Z,3.53
2023-12-22T22:01:52.364Z,3.69
2023-12-22T22:04:59.092Z,3.69
2023-12-22T22:08:01.665Z,3.71
2023-12-22T22:11:04.218Z,3.62
2023-12-22T22:14:18.060Z,3.59
2023-12-22T22:17:25.796Z,3.70
2023-12-22T22:20:28.993Z,3.81
2023-12-22T22:23:31.230Z,3.76
2023-12-22T22:26:33.887Z,3.73
2023-12-22T22:29:36.628Z,3.73
2023-12-22T22:32:39.193Z,3.59
2023-12-22T22:35:41.640Z,3.71
2023-12-22T22:38:44.050Z,3.71
2023-12-22T22:41:46.311Z,3.63
2023-12-22T22:44:48.585Z,3.66
2023-12-22T22:47:51.149Z,3.69
2023-12-22T22:50:54.044Z,3.62
2023-12-22T22:53:57.605Z,3.49
2023-12-22T22:57:00.485Z,3.59
2023-12-22T23:00:04.237Z,3.47
2023-12-22T23:03:06.646Z,3.53
2023-12-22T23:06:09.219Z,3.52
2023-12-22T23:09:12.024Z,3.47
2023-12-22T23:12:14.549Z,3.40
2023-12-22T23:15:17.268Z,3.46
2023-12-22T23:18:19.839Z,3.30
2023-12-22T23:21:22.344Z,3.29
2023-12-22T23:24:24.599Z,3.23
2023-12-22T23:27:27.036Z,3.20
2023-12-22T23:30:29.273Z,3.19
2023-12-22T23:33:32.274Z,3.25
2023-12-22T23:36:34.650Z,3.27
2023-12-22T23:39:36.987Z,3.26
2023-12-22T23:42:39.244Z,3.12
2023-12-22T23:45:41.640Z,3.15
2023-12-22T23:48:45.449Z,3.15
2023-12-22T23:51:48.077Z,2.99
2023-12-22T23:54:50.432Z,3.09
2023-12-22T23:57:53.083Z,3.04
